sensor_id;sensor_type;location;lat;lon;timestamp;P1;durP1;ratioP1;P2;durP2;ratioP2
7587;SDS011;3835;48.850;8.938;2022-11-12T00:01:25;15.73;;;14.53;;
7587;SDS011;3835;48.850;8.938;2022-11-12T00:03:53;16.47;;;14.97;;
7587;SDS011;3835;48.850;8.938;2022-11-12T00:06:21;15.80;;;14.70;;
7587;SDS011;3835;48.850;8.938;2022-11-12T00:08:48;14.67;;;13.70;;
7587;SDS011;3835;48.850;8.938;2022-11-12T00:11:14;15.93;;;14.73;;
7587;SDS011;3835;48.850;8.938;2022-11-12T00:13:41;15.57;;;14.67;;
7587;SDS011;3835;48.850;8.938;2022-11-12T00:16:08;14.77;;;13.77;;
7587;SDS011;3835;48.850;8.938;2022-11-12T00:18:35;16.03;;;14.87;;
7587;SDS011;3835;48.850;8.938;2022-11-12T00:21:03;15.63;;;14.60;;
7587;SDS011;3835;48.850;8.938;2022-11-12T00:23:30;15.13;;;14.07;;
7587;SDS011;3835;48.850;8.938;2022-11-12T00:25:57;14.90;;;13.90;;
7587;SDS011;3835;48.850;8.938;2022-11-12T00:28:24;14.47;;;13.37;;
7587;SDS011;3835;48.850;8.938;2022-11-12T00:30:51;14.07;;;13.10;;
7587;SDS011;3835;48.850;8.938;2022-11-12T00:33:18;14.03;;;13.23;;
7587;SDS011;3835;48.850;8.938;2022-11-12T00:35:45;14.60;;;13.80;;
7587;SDS011;3835;48.850;8.938;2022-11-12T00:38:13;14.93;;;14.03;;
7587;SDS011;3835;48.850;8.938;2022-11-12T00:40:40;14.70;;;13.77;;
7587;SDS011;3835;48.850;8.938;2022-11-12T00:43:07;14.97;;;14.00;;
7587;SDS011;3835;48.850;8.938;2022-11-12T00:45:34;13.87;;;12.97;;
7587;SDS011;3835;48.850;8.938;2022-11-12T00:48:00;14.83;;;13.83;;
7587;SDS011;3835;48.850;8.938;2022-11-12T00:50:27;13.30;;;12.43;;
7587;SDS011;3835;48.850;8.938;2022-11-12T00:52:54;14.47;;;13.67;;
7587;SDS011;3835;48.850;8.938;2022-11-12T00:55:22;14.03;;;13.23;;
7587;SDS011;3835;48.850;8.938;2022-11-12T00:57:49;15.90;;;14.90;;
7587;SDS011;3835;48.850;8.938;2022-11-12T01:00:16;14.43;;;13.63;;
7587;SDS011;3835;48.850;8.938;2022-11-12T01:02:44;13.03;;;12.23;;
7587;SDS011;3835;48.850;8.938;2022-11-12T01:05:11;14.10;;;13.23;;
7587;SDS011;3835;48.850;8.938;2022-11-12T01:07:37;14.07;;;13.07;;
7587;SDS011;3835;48.850;8.938;2022-11-12T01:10:05;14.63;;;13.73;;
7587;SDS011;3835;48.850;8.938;2022-11-12T01:12:34;14.57;;;13.67;;
7587;SDS011;3835;48.850;8.938;2022-11-12T01:15:01;14.23;;;13.33;;
7587;SDS011;3835;48.850;8.938;2022-11-12T01:17:27;12.73;;;12.03;;
7587;SDS011;3835;48.850;8.938;2022-11-12T01:19:54;13.90;;;13.00;;
7587;SDS011;3835;48.850;8.938;2022-11-12T01:22:21;13.20;;;12.40;;
7587;SDS011;3835;48.850;8.938;2022-11-12T01:24:48;15.07;;;14.17;;
7587;SDS011;3835;48.850;8.938;2022-11-12T01:27:15;13.23;;;12.40;;
7587;SDS011;3835;48.850;8.938;2022-11-12T01:29:43;13.73;;;12.83;;
7587;SDS011;3835;48.850;8.938;2022-11-12T01:32:10;14.53;;;13.63;;
7587;SDS011;3835;48.850;8.938;2022-11-12T01:34:37;15.17;;;14.20;;
7587;SDS011;3835;48.850;8.938;2022-11-12T01:37:04;14.37;;;13.37;;
7587;SDS011;3835;48.850;8.938;2022-11-12T01:39:30;14.20;;;13.27;;
7587;SDS011;3835;48.850;8.938;2022-11-12T01:41:57;16.30;;;15.10;;
7587;SDS011;3835;48.850;8.938;2022-11-12T01:44:24;15.10;;;14.10;;
7587;SDS011;3835;48.850;8.938;2022-11-12T01:47:01;14.77;;;13.83;;
7587;SDS011;3835;48.850;8.938;2022-11-12T01:49:31;14.80;;;14.00;;
7587;SDS011;3835;48.850;8.938;2022-11-12T01:52:07;15.90;;;15.00;;
7587;SDS011;3835;48.850;8.938;2022-11-12T01:54:39;15.03;;;14.13;;
7587;SDS011;3835;48.850;8.938;2022-11-12T01:57:07;15.27;;;14.43;;
7587;SDS011;3835;48.850;8.938;2022-11-12T01:59:37;14.03;;;13.23;;
7587;SDS011;3835;48.850;8.938;2022-11-12T02:02:08;15.13;;;14.23;;
7587;SDS011;3835;48.850;8.938;2022-11-12T02:04:35;13.50;;;12.73;;
7587;SDS011;3835;48.850;8.938;2022-11-12T02:07:04;13.97;;;13.10;;
7587;SDS011;3835;48.850;8.938;2022-11-12T02:09:33;15.57;;;14.70;;
7587;SDS011;3835;48.850;8.938;2022-11-12T02:12:00;15.07;;;14.27;;
7587;SDS011;3835;48.850;8.938;2022-11-12T02:14:27;14.77;;;13.97;;
7587;SDS011;3835;48.850;8.938;2022-11-12T02:16:54;15.10;;;14.20;;
7587;SDS011;3835;48.850;8.938;2022-11-12T02:19:22;14.43;;;13.63;;
7587;SDS011;3835;48.850;8.938;2022-11-12T02:21:51;15.20;;;14.40;;
7587;SDS011;3835;48.850;8.938;2022-11-12T02:24:29;14.63;;;13.80;;
7587;SDS011;3835;48.850;8.938;2022-11-12T02:26:57;14.33;;;13.53;;
7587;SDS011;3835;48.850;8.938;2022-11-12T02:29:25;13.83;;;13.03;;
7587;SDS011;3835;48.850;8.938;2022-11-12T02:31:51;15.63;;;13.70;;
7587;SDS011;3835;48.850;8.938;2022-11-12T02:34:18;14.07;;;13.27;;
7587;SDS011;3835;48.850;8.938;2022-11-12T02:36:45;15.00;;;14.10;;
7587;SDS011;3835;48.850;8.938;2022-11-12T02:39:13;15.50;;;14.50;;
7587;SDS011;3835;48.850;8.938;2022-11-12T02:41:40;14.43;;;13.53;;
7587;SDS011;3835;48.850;8.938;2022-11-12T02:44:07;15.27;;;14.47;;
7587;SDS011;3835;48.850;8.938;2022-11-12T02:46:33;14.77;;;13.87;;
7587;SDS011;3835;48.850;8.938;2022-11-12T02:49:00;14.07;;;13.17;;
7587;SDS011;3835;48.850;8.938;2022-11-12T02:51:27;14.97;;;14.07;;
7587;SDS011;3835;48.850;8.938;2022-11-12T02:53:54;13.80;;;13.10;;
7587;SDS011;3835;48.850;8.938;2022-11-12T02:56:22;14.07;;;13.37;;
7587;SDS011;3835;48.850;8.938;2022-11-12T02:58:48;14.53;;;13.73;;
7587;SDS011;3835;48.850;8.938;2022-11-12T03:01:15;14.60;;;13.50;;
7587;SDS011;3835;48.850;8.938;2022-11-12T03:03:42;13.20;;;12.50;;
7587;SDS011;3835;48.850;8.938;2022-11-12T03:06:09;15.40;;;14.50;;
7587;SDS011;3835;48.850;8.938;2022-11-12T03:08:35;15.13;;;14.23;;
7587;SDS011;3835;48.850;8.938;2022-11-12T03:11:05;14.70;;;13.87;;
7587;SDS011;3835;48.850;8.938;2022-11-12T03:13:34;16.07;;;15.13;;
7587;SDS011;3835;48.850;8.938;2022-11-12T03:16:01;13.83;;;13.03;;
7587;SDS011;3835;48.850;8.938;2022-11-12T03:18:28;15.13;;;14.33;;
7587;SDS011;3835;48.850;8.938;2022-11-12T03:20:55;15.50;;;14.70;;
7587;SDS011;3835;48.850;8.938;2022-11-12T03:23:22;17.17;;;16.17;;
7587;SDS011;3835;48.850;8.938;2022-11-12T03:25:51;15.50;;;14.70;;
7587;SDS011;3835;48.850;8.938;2022-11-12T03:28:17;15.77;;;14.87;;
7587;SDS011;3835;48.850;8.938;2022-11-12T03:30:46;16.33;;;15.43;;
7587;SDS011;3835;48.850;8.938;2022-11-12T03:33:13;16.07;;;14.90;;
7587;SDS011;3835;48.850;8.938;2022-11-12T03:35:41;14.60;;;13.70;;
7587;SDS011;3835;48.850;8.938;2022-11-12T03:38:08;14.80;;;14.00;;
7587;SDS011;3835;48.850;8.938;2022-11-12T03:40:35;15.13;;;14.23;;
7587;SDS011;3835;48.850;8.938;2022-11-12T03:43:02;15.50;;;14.60;;
7587;SDS011;3835;48.850;8.938;2022-11-12T03:45:28;14.50;;;13.70;;
7587;SDS011;3835;48.850;8.938;2022-11-12T03:47:57;15.37;;;14.47;;
7587;SDS011;3835;48.850;8.938;2022-11-12T03:50:25;15.77;;;14.97;;
7587;SDS011;3835;48.850;8.938;2022-11-12T03:52:54;16.23;;;15.23;;
7587;SDS011;3835;48.850;8.938;2022-11-12T03:55:23;15.60;;;14.70;;
7587;SDS011;3835;48.850;8.938;2022-11-12T03:57:51;14.83;;;14.03;;
7587;SDS011;3835;48.850;8.938;2022-11-12T04:00:19;15.77;;;14.87;;
7587;SDS011;3835;48.850;8.938;2022-11-12T04:02:47;14.40;;;13.70;;
7587;SDS011;3835;48.850;8.938;2022-11-12T04:05:16;16.53;;;15.63;;
7587;SDS011;3835;48.850;8.938;2022-11-12T04:08:02;16.87;;;15.77;;
7587;SDS011;3835;48.850;8.938;2022-11-12T04:10:48;14.07;;;13.27;;
7587;SDS011;3835;48.850;8.938;2022-11-12T04:13:14;16.57;;;15.57;;
7587;SDS011;3835;48.850;8.938;2022-11-12T04:15:57;16.60;;;15.80;;
7587;SDS011;3835;48.850;8.938;2022-11-12T04:18:43;16.80;;;15.80;;
7587;SDS011;3835;48.850;8.938;2022-11-12T04:21:31;14.07;;;13.27;;
7587;SDS011;3835;48.850;8.938;2022-11-12T04:24:20;15.17;;;14.33;;
7587;SDS011;3835;48.850;8.938;2022-11-12T04:27:09;14.90;;;14.10;;
7587;SDS011;3835;48.850;8.938;2022-11-12T04:29:39;16.67;;;15.67;;
7587;SDS011;3835;48.850;8.938;2022-11-12T04:32:24;14.20;;;13.50;;
7587;SDS011;3835;48.850;8.938;2022-11-12T04:34:51;15.37;;;14.57;;
7587;SDS011;3835;48.850;8.938;2022-11-12T04:37:19;16.57;;;15.77;;
7587;SDS011;3835;48.850;8.938;2022-11-12T04:39:46;15.23;;;14.43;;
7587;SDS011;3835;48.850;8.938;2022-11-12T04:42:13;15.83;;;14.87;;
7587;SDS011;3835;48.850;8.938;2022-11-12T04:44:58;16.13;;;14.87;;
7587;SDS011;3835;48.850;8.938;2022-11-12T04:47:25;14.37;;;13.67;;
7587;SDS011;3835;48.850;8.938;2022-11-12T04:49:54;15.97;;;14.97;;
7587;SDS011;3835;48.850;8.938;2022-11-12T04:52:22;15.10;;;14.10;;
7587;SDS011;3835;48.850;8.938;2022-11-12T04:54:49;14.60;;;13.70;;
7587;SDS011;3835;48.850;8.938;2022-11-12T04:57:17;15.73;;;14.83;;
7587;SDS011;3835;48.850;8.938;2022-11-12T04:59:44;14.00;;;13.23;;
7587;SDS011;3835;48.850;8.938;2022-11-12T05:02:11;12.90;;;12.20;;
7587;SDS011;3835;48.850;8.938;2022-11-12T05:04:38;13.63;;;12.83;;
7587;SDS011;3835;48.850;8.938;2022-11-12T05:07:05;13.83;;;13.03;;
7587;SDS011;3835;48.850;8.938;2022-11-12T05:09:33;14.23;;;13.43;;
7587;SDS011;3835;48.850;8.938;2022-11-12T05:12:00;12.73;;;12.03;;
7587;SDS011;3835;48.850;8.938;2022-11-12T05:14:27;14.97;;;14.13;;
7587;SDS011;3835;48.850;8.938;2022-11-12T05:16:54;13.57;;;12.83;;
7587;SDS011;3835;48.850;8.938;2022-11-12T05:19:21;13.23;;;12.60;;
7587;SDS011;3835;48.850;8.938;2022-11-12T05:21:47;13.70;;;12.90;;
7587;SDS011;3835;48.850;8.938;2022-11-12T05:24:38;13.43;;;12.73;;
7587;SDS011;3835;48.850;8.938;2022-11-12T05:27:06;14.77;;;13.67;;
7587;SDS011;3835;48.850;8.938;2022-11-12T05:29:35;14.80;;;13.80;;
7587;SDS011;3835;48.850;8.938;2022-11-12T05:32:03;15.37;;;14.33;;
7587;SDS011;3835;48.850;8.938;2022-11-12T05:34:30;14.73;;;13.63;;
7587;SDS011;3835;48.850;8.938;2022-11-12T05:36:57;14.87;;;14.03;;
7587;SDS011;3835;48.850;8.938;2022-11-12T05:39:24;14.23;;;13.43;;
7587;SDS011;3835;48.850;8.938;2022-11-12T05:41:52;12.93;;;12.23;;
7587;SDS011;3835;48.850;8.938;2022-11-12T05:44:19;14.90;;;13.63;;
7587;SDS011;3835;48.850;8.938;2022-11-12T05:46:46;15.50;;;14.70;;
7587;SDS011;3835;48.850;8.938;2022-11-12T05:49:14;12.97;;;12.20;;
7587;SDS011;3835;48.850;8.938;2022-11-12T05:51:41;12.97;;;12.27;;
7587;SDS011;3835;48.850;8.938;2022-11-12T05:54:09;12.33;;;11.63;;
7587;SDS011;3835;48.850;8.938;2022-11-12T05:56:36;13.67;;;12.97;;
7587;SDS011;3835;48.850;8.938;2022-11-12T05:59:05;14.53;;;13.73;;
7587;SDS011;3835;48.850;8.938;2022-11-12T06:01:33;13.37;;;12.67;;
7587;SDS011;3835;48.850;8.938;2022-11-12T06:04:02;14.03;;;13.17;;
7587;SDS011;3835;48.850;8.938;2022-11-12T06:06:29;15.13;;;14.13;;
7587;SDS011;3835;48.850;8.938;2022-11-12T06:08:56;14.87;;;14.07;;
7587;SDS011;3835;48.850;8.938;2022-11-12T06:11:23;15.20;;;14.30;;
7587;SDS011;3835;48.850;8.938;2022-11-12T06:13:50;15.37;;;14.37;;
7587;SDS011;3835;48.850;8.938;2022-11-12T06:16:18;16.07;;;15.13;;
7587;SDS011;3835;48.850;8.938;2022-11-12T06:18:45;14.83;;;13.80;;
7587;SDS011;3835;48.850;8.938;2022-11-12T06:21:12;13.37;;;12.57;;
7587;SDS011;3835;48.850;8.938;2022-11-12T06:23:46;14.07;;;13.17;;
7587;SDS011;3835;48.850;8.938;2022-11-12T06:26:15;13.10;;;12.23;;
7587;SDS011;3835;48.850;8.938;2022-11-12T06:28:42;14.10;;;13.20;;
7587;SDS011;3835;48.850;8.938;2022-11-12T06:31:09;14.40;;;13.53;;
7587;SDS011;3835;48.850;8.938;2022-11-12T06:33:37;14.70;;;13.70;;
7587;SDS011;3835;48.850;8.938;2022-11-12T06:36:05;14.83;;;14.03;;
7587;SDS011;3835;48.850;8.938;2022-11-12T06:38:33;14.20;;;13.30;;
7587;SDS011;3835;48.850;8.938;2022-11-12T06:41:00;15.70;;;14.80;;
7587;SDS011;3835;48.850;8.938;2022-11-12T06:43:27;13.37;;;12.57;;
7587;SDS011;3835;48.850;8.938;2022-11-12T06:45:57;13.40;;;12.53;;
7587;SDS011;3835;48.850;8.938;2022-11-12T06:48:26;15.47;;;14.50;;
7587;SDS011;3835;48.850;8.938;2022-11-12T06:50:54;15.57;;;14.57;;
7587;SDS011;3835;48.850;8.938;2022-11-12T06:53:21;13.30;;;12.40;;
7587;SDS011;3835;48.850;8.938;2022-11-12T06:55:48;14.47;;;13.53;;
7587;SDS011;3835;48.850;8.938;2022-11-12T06:58:15;14.50;;;13.47;;
7587;SDS011;3835;48.850;8.938;2022-11-12T07:00:42;14.73;;;13.80;;
7587;SDS011;3835;48.850;8.938;2022-11-12T07:03:09;14.10;;;13.30;;
7587;SDS011;3835;48.850;8.938;2022-11-12T07:05:38;13.87;;;12.87;;
7587;SDS011;3835;48.850;8.938;2022-11-12T07:08:06;14.80;;;13.90;;
7587;SDS011;3835;48.850;8.938;2022-11-12T07:10:33;15.33;;;14.20;;
7587;SDS011;3835;48.850;8.938;2022-11-12T07:13:00;14.87;;;13.83;;
7587;SDS011;3835;48.850;8.938;2022-11-12T07:15:27;15.57;;;14.27;;
7587;SDS011;3835;48.850;8.938;2022-11-12T07:17:53;15.67;;;14.53;;
7587;SDS011;3835;48.850;8.938;2022-11-12T07:20:20;15.83;;;14.73;;
7587;SDS011;3835;48.850;8.938;2022-11-12T07:22:47;15.07;;;14.07;;
7587;SDS011;3835;48.850;8.938;2022-11-12T07:25:15;14.87;;;13.87;;
7587;SDS011;3835;48.850;8.938;2022-11-12T07:27:42;14.07;;;12.97;;
7587;SDS011;3835;48.850;8.938;2022-11-12T07:30:09;14.33;;;13.07;;
7587;SDS011;3835;48.850;8.938;2022-11-12T07:32:36;15.00;;;14.10;;
7587;SDS011;3835;48.850;8.938;2022-11-12T07:35:03;14.43;;;13.43;;
7587;SDS011;3835;48.850;8.938;2022-11-12T07:37:30;13.67;;;12.87;;
7587;SDS011;3835;48.850;8.938;2022-11-12T07:39:59;14.13;;;13.23;;
7587;SDS011;3835;48.850;8.938;2022-11-12T07:42:28;13.53;;;12.43;;
7587;SDS011;3835;48.850;8.938;2022-11-12T07:44:58;14.37;;;13.47;;
7587;SDS011;3835;48.850;8.938;2022-11-12T07:47:25;14.63;;;13.63;;
7587;SDS011;3835;48.850;8.938;2022-11-12T07:49:52;15.60;;;14.70;;
7587;SDS011;3835;48.850;8.938;2022-11-12T07:52:19;13.53;;;12.73;;
7587;SDS011;3835;48.850;8.938;2022-11-12T07:54:46;13.53;;;12.73;;
7587;SDS011;3835;48.850;8.938;2022-11-12T07:57:12;14.80;;;13.90;;
7587;SDS011;3835;48.850;8.938;2022-11-12T07:59:41;14.67;;;13.70;;
7587;SDS011;3835;48.850;8.938;2022-11-12T08:02:07;14.17;;;13.27;;
7587;SDS011;3835;48.850;8.938;2022-11-12T08:04:35;14.90;;;13.87;;
7587;SDS011;3835;48.850;8.938;2022-11-12T08:07:02;13.70;;;12.80;;
7587;SDS011;3835;48.850;8.938;2022-11-12T08:09:29;12.70;;;12.00;;
7587;SDS011;3835;48.850;8.938;2022-11-12T08:11:55;13.80;;;12.90;;
7587;SDS011;3835;48.850;8.938;2022-11-12T08:14:22;12.30;;;11.60;;
7587;SDS011;3835;48.850;8.938;2022-11-12T08:16:51;14.27;;;13.47;;
7587;SDS011;3835;48.850;8.938;2022-11-12T08:19:17;14.40;;;13.70;;
7587;SDS011;3835;48.850;8.938;2022-11-12T08:21:44;12.67;;;11.97;;
7587;SDS011;3835;48.850;8.938;2022-11-12T08:24:11;13.17;;;12.23;;
7587;SDS011;3835;48.850;8.938;2022-11-12T08:26:38;13.73;;;13.03;;
7587;SDS011;3835;48.850;8.938;2022-11-12T08:29:04;11.80;;;11.20;;
7587;SDS011;3835;48.850;8.938;2022-11-12T08:31:31;12.17;;;11.57;;
7587;SDS011;3835;48.850;8.938;2022-11-12T08:33:59;12.00;;;11.30;;
7587;SDS011;3835;48.850;8.938;2022-11-12T08:36:36;12.60;;;12.00;;
7587;SDS011;3835;48.850;8.938;2022-11-12T08:39:03;13.20;;;12.50;;
7587;SDS011;3835;48.850;8.938;2022-11-12T08:41:29;13.23;;;12.50;;
7587;SDS011;3835;48.850;8.938;2022-11-12T08:43:56;14.43;;;13.53;;
7587;SDS011;3835;48.850;8.938;2022-11-12T08:46:23;13.43;;;12.73;;
7587;SDS011;3835;48.850;8.938;2022-11-12T08:48:50;12.83;;;12.13;;
7587;SDS011;3835;48.850;8.938;2022-11-12T08:51:18;14.40;;;13.67;;
7587;SDS011;3835;48.850;8.938;2022-11-12T08:53:45;13.80;;;13.20;;
7587;SDS011;3835;48.850;8.938;2022-11-12T08:56:11;12.93;;;12.33;;
7587;SDS011;3835;48.850;8.938;2022-11-12T08:58:38;13.37;;;12.77;;
7587;SDS011;3835;48.850;8.938;2022-11-12T09:01:07;13.77;;;13.17;;
7587;SDS011;3835;48.850;8.938;2022-11-12T09:03:34;14.93;;;13.83;;
7587;SDS011;3835;48.850;8.938;2022-11-12T09:06:01;13.20;;;12.50;;
7587;SDS011;3835;48.850;8.938;2022-11-12T09:08:31;12.93;;;12.27;;
7587;SDS011;3835;48.850;8.938;2022-11-12T09:10:59;13.00;;;12.30;;
7587;SDS011;3835;48.850;8.938;2022-11-12T09:13:26;12.53;;;11.93;;
7587;SDS011;3835;48.850;8.938;2022-11-12T09:15:53;12.00;;;11.40;;
7587;SDS011;3835;48.850;8.938;2022-11-12T09:18:25;11.87;;;11.00;;
7587;SDS011;3835;48.850;8.938;2022-11-12T09:20:52;14.30;;;13.07;;
7587;SDS011;3835;48.850;8.938;2022-11-12T09:23:19;12.90;;;12.20;;
7587;SDS011;3835;48.850;8.938;2022-11-12T09:25:47;13.50;;;12.80;;
7587;SDS011;3835;48.850;8.938;2022-11-12T09:28:14;13.17;;;12.43;;
7587;SDS011;3835;48.850;8.938;2022-11-12T09:30:43;13.20;;;12.60;;
7587;SDS011;3835;48.850;8.938;2022-11-12T09:33:11;13.67;;;12.97;;
7587;SDS011;3835;48.850;8.938;2022-11-12T09:35:38;13.80;;;13.10;;
7587;SDS011;3835;48.850;8.938;2022-11-12T09:38:05;13.27;;;12.57;;
7587;SDS011;3835;48.850;8.938;2022-11-12T09:40:40;13.40;;;12.80;;
7587;SDS011;3835;48.850;8.938;2022-11-12T09:43:24;12.60;;;12.00;;
7587;SDS011;3835;48.850;8.938;2022-11-12T09:49:16;13.73;;;13.13;;
7587;SDS011;3835;48.850;8.938;2022-11-12T09:52:22;12.13;;;11.53;;
7587;SDS011;3835;48.850;8.938;2022-11-12T09:54:53;11.47;;;10.87;;
7587;SDS011;3835;48.850;8.938;2022-11-12T09:57:27;12.83;;;12.23;;
7587;SDS011;3835;48.850;8.938;2022-11-12T09:59:56;12.60;;;12.00;;
7587;SDS011;3835;48.850;8.938;2022-11-12T10:02:48;14.50;;;13.80;;
7587;SDS011;3835;48.850;8.938;2022-11-12T10:05:32;14.63;;;13.93;;
7587;SDS011;3835;48.850;8.938;2022-11-12T10:08:30;14.50;;;13.90;;
7587;SDS011;3835;48.850;8.938;2022-11-12T10:15:13;13.57;;;12.97;;
7587;SDS011;3835;48.850;8.938;2022-11-12T10:21:17;14.93;;;14.23;;
7587;SDS011;3835;48.850;8.938;2022-11-12T10:23:50;13.47;;;12.87;;
7587;SDS011;3835;48.850;8.938;2022-11-12T10:26:19;12.17;;;11.57;;
7587;SDS011;3835;48.850;8.938;2022-11-12T10:28:49;14.83;;;14.07;;
7587;SDS011;3835;48.850;8.938;2022-11-12T10:31:21;14.87;;;14.17;;
7587;SDS011;3835;48.850;8.938;2022-11-12T10:33:48;13.13;;;12.47;;
7587;SDS011;3835;48.850;8.938;2022-11-12T10:36:17;12.60;;;11.97;;
7587;SDS011;3835;48.850;8.938;2022-11-12T10:38:48;13.53;;;12.93;;
7587;SDS011;3835;48.850;8.938;2022-11-12T10:41:19;13.60;;;12.90;;
7587;SDS011;3835;48.850;8.938;2022-11-12T10:43:52;13.07;;;12.47;;
7587;SDS011;3835;48.850;8.938;2022-11-12T10:46:22;14.47;;;13.87;;
7587;SDS011;3835;48.850;8.938;2022-11-12T10:48:55;13.70;;;13.10;;
7587;SDS011;3835;48.850;8.938;2022-11-12T10:51:25;13.30;;;12.70;;
7587;SDS011;3835;48.850;8.938;2022-11-12T10:53:55;15.63;;;14.63;;
7587;SDS011;3835;48.850;8.938;2022-11-12T10:56:23;15.90;;;14.87;;
7587;SDS011;3835;48.850;8.938;2022-11-12T10:59:16;16.60;;;15.60;;
7587;SDS011;3835;48.850;8.938;2022-11-12T11:02:14;15.83;;;15.00;;
7587;SDS011;3835;48.850;8.938;2022-11-12T11:04:43;16.90;;;16.00;;
7587;SDS011;3835;48.850;8.938;2022-11-12T11:07:15;15.90;;;15.00;;
7587;SDS011;3835;48.850;8.938;2022-11-12T11:09:50;15.83;;;14.80;;
7587;SDS011;3835;48.850;8.938;2022-11-12T11:12:21;17.30;;;16.00;;
7587;SDS011;3835;48.850;8.938;2022-11-12T11:14:55;17.97;;;16.90;;
7587;SDS011;3835;48.850;8.938;2022-11-12T11:17:33;15.67;;;14.57;;
7587;SDS011;3835;48.850;8.938;2022-11-12T11:20:00;15.97;;;14.93;;
7587;SDS011;3835;48.850;8.938;2022-11-12T11:22:29;14.80;;;13.90;;
7587;SDS011;3835;48.850;8.938;2022-11-12T11:25:10;16.97;;;15.93;;
7587;SDS011;3835;48.850;8.938;2022-11-12T11:27:48;16.40;;;15.40;;
7587;SDS011;3835;48.850;8.938;2022-11-12T11:30:24;16.00;;;15.00;;
7587;SDS011;3835;48.850;8.938;2022-11-12T11:36:02;14.70;;;13.60;;
7587;SDS011;3835;48.850;8.938;2022-11-12T11:38:43;15.07;;;14.17;;
7587;SDS011;3835;48.850;8.938;2022-11-12T11:41:30;17.77;;;16.60;;
7587;SDS011;3835;48.850;8.938;2022-11-12T11:44:18;15.70;;;14.70;;
7587;SDS011;3835;48.850;8.938;2022-11-12T11:47:05;16.53;;;15.43;;
7587;SDS011;3835;48.850;8.938;2022-11-12T11:52:53;14.73;;;13.73;;
7587;SDS011;3835;48.850;8.938;2022-11-12T11:55:28;17.23;;;15.93;;
7587;SDS011;3835;48.850;8.938;2022-11-12T11:58:04;16.90;;;15.67;;
7587;SDS011;3835;48.850;8.938;2022-11-12T12:00:40;15.77;;;14.77;;
7587;SDS011;3835;48.850;8.938;2022-11-12T12:03:16;16.47;;;15.27;;
7587;SDS011;3835;48.850;8.938;2022-11-12T12:05:48;15.03;;;14.03;;
7587;SDS011;3835;48.850;8.938;2022-11-12T12:08:38;15.53;;;14.23;;
7587;SDS011;3835;48.850;8.938;2022-11-12T12:11:12;16.23;;;15.07;;
7587;SDS011;3835;48.850;8.938;2022-11-12T12:13:46;16.50;;;15.30;;
7587;SDS011;3835;48.850;8.938;2022-11-12T12:16:26;17.07;;;15.93;;
7587;SDS011;3835;48.850;8.938;2022-11-12T12:19:04;16.70;;;15.40;;
7587;SDS011;3835;48.850;8.938;2022-11-12T12:21:40;18.00;;;16.67;;
7587;SDS011;3835;48.850;8.938;2022-11-12T12:24:13;16.03;;;14.87;;
7587;SDS011;3835;48.850;8.938;2022-11-12T12:26:44;17.10;;;16.00;;
7587;SDS011;3835;48.850;8.938;2022-11-12T12:29:14;15.90;;;14.87;;
7587;SDS011;3835;48.850;8.938;2022-11-12T12:31:46;17.00;;;15.90;;
7587;SDS011;3835;48.850;8.938;2022-11-12T12:34:17;17.80;;;16.60;;
7587;SDS011;3835;48.850;8.938;2022-11-12T12:36:48;16.70;;;15.60;;
7587;SDS011;3835;48.850;8.938;2022-11-12T12:39:22;17.10;;;16.00;;
7587;SDS011;3835;48.850;8.938;2022-11-12T12:41:52;17.90;;;16.70;;
7587;SDS011;3835;48.850;8.938;2022-11-12T12:44:22;19.57;;;18.17;;
7587;SDS011;3835;48.850;8.938;2022-11-12T12:47:12;17.57;;;16.23;;
7587;SDS011;3835;48.850;8.938;2022-11-12T12:49:39;16.13;;;15.13;;
7587;SDS011;3835;48.850;8.938;2022-11-12T12:52:10;17.40;;;16.00;;
7587;SDS011;3835;48.850;8.938;2022-11-12T12:54:54;17.63;;;16.23;;
7587;SDS011;3835;48.850;8.938;2022-11-12T12:57:26;17.03;;;15.70;;
7587;SDS011;3835;48.850;8.938;2022-11-12T13:02:51;17.23;;;16.13;;
7587;SDS011;3835;48.850;8.938;2022-11-12T13:05:22;19.30;;;17.93;;
7587;SDS011;3835;48.850;8.938;2022-11-12T13:07:50;19.83;;;18.63;;
7587;SDS011;3835;48.850;8.938;2022-11-12T13:13:23;15.80;;;14.70;;
7587;SDS011;3835;48.850;8.938;2022-11-12T13:16:00;15.97;;;14.90;;
7587;SDS011;3835;48.850;8.938;2022-11-12T13:21:24;16.93;;;15.90;;
7587;SDS011;3835;48.850;8.938;2022-11-12T13:23:51;16.53;;;15.40;;
7587;SDS011;3835;48.850;8.938;2022-11-12T13:35:20;16.83;;;15.73;;
7587;SDS011;3835;48.850;8.938;2022-11-12T13:37:52;18.63;;;17.33;;
7587;SDS011;3835;48.850;8.938;2022-11-12T13:40:41;16.63;;;15.57;;
7587;SDS011;3835;48.850;8.938;2022-11-12T13:43:19;16.20;;;15.10;;
7587;SDS011;3835;48.850;8.938;2022-11-12T13:45:57;17.20;;;15.90;;
7587;SDS011;3835;48.850;8.938;2022-11-12T13:48:28;18.53;;;17.33;;
7587;SDS011;3835;48.850;8.938;2022-11-12T13:51:00;19.10;;;17.87;;
7587;SDS011;3835;48.850;8.938;2022-11-12T13:53:29;17.60;;;16.27;;
7587;SDS011;3835;48.850;8.938;2022-11-12T13:55:57;17.47;;;16.17;;
7587;SDS011;3835;48.850;8.938;2022-11-12T13:58:26;17.37;;;16.13;;
7587;SDS011;3835;48.850;8.938;2022-11-12T14:00:54;18.47;;;17.27;;
7587;SDS011;3835;48.850;8.938;2022-11-12T14:03:23;17.13;;;16.03;;
7587;SDS011;3835;48.850;8.938;2022-11-12T14:05:52;18.27;;;17.07;;
7587;SDS011;3835;48.850;8.938;2022-11-12T14:08:38;16.47;;;15.40;;
7587;SDS011;3835;48.850;8.938;2022-11-12T14:11:30;16.90;;;15.80;;
7587;SDS011;3835;48.850;8.938;2022-11-12T14:14:13;17.93;;;16.73;;
7587;SDS011;3835;48.850;8.938;2022-11-12T14:16:50;17.37;;;16.13;;
7587;SDS011;3835;48.850;8.938;2022-11-12T14:19:48;19.90;;;18.60;;
7587;SDS011;3835;48.850;8.938;2022-11-12T14:22:36;17.60;;;16.10;;
7587;SDS011;3835;48.850;8.938;2022-11-12T14:25:09;15.70;;;14.70;;
7587;SDS011;3835;48.850;8.938;2022-11-12T14:27:39;15.93;;;14.73;;
7587;SDS011;3835;48.850;8.938;2022-11-12T14:30:14;18.50;;;17.13;;
7587;SDS011;3835;48.850;8.938;2022-11-12T14:32:43;18.30;;;17.00;;
7587;SDS011;3835;48.850;8.938;2022-11-12T14:35:25;15.67;;;14.53;;
7587;SDS011;3835;48.850;8.938;2022-11-12T14:37:56;16.50;;;15.40;;
7587;SDS011;3835;48.850;8.938;2022-11-12T14:40:26;17.00;;;15.80;;
7587;SDS011;3835;48.850;8.938;2022-11-12T14:42:54;19.10;;;17.80;;
7587;SDS011;3835;48.850;8.938;2022-11-12T14:45:23;17.33;;;16.23;;
7587;SDS011;3835;48.850;8.938;2022-11-12T14:47:50;17.57;;;16.20;;
7587;SDS011;3835;48.850;8.938;2022-11-12T14:50:19;17.17;;;16.00;;
7587;SDS011;3835;48.850;8.938;2022-11-12T14:52:51;20.23;;;18.73;;
7587;SDS011;3835;48.850;8.938;2022-11-12T14:55:23;17.77;;;16.47;;
7587;SDS011;3835;48.850;8.938;2022-11-12T14:57:53;18.17;;;17.00;;
7587;SDS011;3835;48.850;8.938;2022-11-12T15:00:35;19.37;;;18.07;;
7587;SDS011;3835;48.850;8.938;2022-11-12T15:03:09;17.93;;;16.73;;
7587;SDS011;3835;48.850;8.938;2022-11-12T15:05:53;17.60;;;16.27;;
7587;SDS011;3835;48.850;8.938;2022-11-12T15:08:31;16.93;;;15.67;;
7587;SDS011;3835;48.850;8.938;2022-11-12T15:11:16;17.60;;;16.33;;
7587;SDS011;3835;48.850;8.938;2022-11-12T15:13:47;17.77;;;16.47;;
7587;SDS011;3835;48.850;8.938;2022-11-12T15:16:24;17.23;;;15.90;;
7587;SDS011;3835;48.850;8.938;2022-11-12T15:19:13;17.37;;;15.87;;
7587;SDS011;3835;48.850;8.938;2022-11-12T15:21:44;17.63;;;16.33;;
7587;SDS011;3835;48.850;8.938;2022-11-12T15:24:16;17.20;;;16.00;;
7587;SDS011;3835;48.850;8.938;2022-11-12T15:26:46;17.27;;;16.07;;
7587;SDS011;3835;48.850;8.938;2022-11-12T15:29:18;18.60;;;17.10;;
7587;SDS011;3835;48.850;8.938;2022-11-12T15:31:51;17.87;;;16.47;;
7587;SDS011;3835;48.850;8.938;2022-11-12T15:34:23;18.33;;;17.03;;
7587;SDS011;3835;48.850;8.938;2022-11-12T15:36:54;18.33;;;17.07;;
7587;SDS011;3835;48.850;8.938;2022-11-12T15:39:22;21.03;;;19.53;;
7587;SDS011;3835;48.850;8.938;2022-11-12T15:41:58;17.40;;;16.00;;
7587;SDS011;3835;48.850;8.938;2022-11-12T15:44:29;19.10;;;17.67;;